Time;durP1;ratioP1;P1;durP2;ratioP2;P2;SDS_P1;SDS_P2;PMS_P1;PMS_P2;Temp;Humidity;BMP_temperature;BMP_pressure;BME280_temperature;BME280_humidity;BME280_pressure;Samples;Min_cycle;Max_cycle;Signal;HPM_P1;HPM_P2
2022/06/06 00:00:47;;;;;;;73.05;30.25;;;15.00;99.90;;;;;;5036322;28;25095;-67
2022/06/06 00:03:17;;;;;;;69.47;30.63;;;14.90;99.90;;;;;;5031414;28;25085;-68
2022/06/06 00:05:45;;;;;;;79.68;31.23;;;14.70;99.90;;;;;;5033437;28;25075;-68
2022/06/06 00:08:12;;;;;;;70.53;31.55;;;15.10;99.90;;;;;;5038123;28;25153;-66
2022/06/06 00:10:39;;;;;;;78.00;35.03;;;14.90;99.90;;;;;;5034010;28;25099;-65
2022/06/06 00:13:07;;;;;;;74.53;34.13;;;15.00;99.90;;;;;;5027793;28;25064;-67
2022/06/06 00:15:32;;;;;;;96.03;37.20;;;14.80;99.90;;;;;;5027881;28;25072;-66
2022/06/06 00:17:58;;;;;;;80.53;34.05;;;15.20;99.90;;;;;;5027804;28;25109;-68
2022/06/06 00:20:24;;;;;;;83.53;36.13;;;14.90;99.90;;;;;;5033177;28;25090;-68
2022/06/06 00:22:50;;;;;;;82.75;35.83;;;15.10;99.90;;;;;;5031987;28;25087;-69
2022/06/06 00:25:16;;;;;;;83.25;35.45;;;14.90;99.90;;;;;;5037421;28;25056;-68
2022/06/06 00:27:41;;;;;;;79.68;34.67;;;14.80;99.90;;;;;;5024414;28;25063;-68
2022/06/06 00:30:08;;;;;;;75.25;34.25;;;14.90;99.90;;;;;;5033253;28;25052;-69
2022/06/06 00:35:20;;;;;;;74.40;34.13;;;14.80;99.90;;;;;;5048390;28;25080;-68
2022/06/06 00:37:47;;;;;;;82.00;35.50;;;15.00;99.90;;;;;;5047458;28;25105;-68
2022/06/06 00:40:15;;;;;;;79.57;32.13;;;15.00;99.90;;;;;;5048553;28;25077;-67
2022/06/06 00:42:42;;;;;;;74.45;34.08;;;15.00;99.90;;;;;;5038104;28;25064;-69
2022/06/06 00:45:18;;;;;;;72.72;32.47;;;14.80;99.90;;;;;;5031924;28;25059;-68
2022/06/06 00:47:51;;;;;;;75.32;33.15;;;14.70;99.90;;;;;;5037592;28;25168;-69
2022/06/06 00:50:22;;;;;;;75.40;32.78;;;14.80;99.90;;;;;;5030772;28;25149;-69
2022/06/06 00:52:50;;;;;;;81.15;34.10;;;14.90;99.90;;;;;;5028564;28;25072;-71
2022/06/06 00:55:21;;;;;;;77.80;36.28;;;14.80;99.90;;;;;;5028052;28;25125;-67
2022/06/06 00:57:50;;;;;;;74.07;33.20;;;14.80;99.90;;;;;;5029763;28;25188;-68
2022/06/06 01:00:18;;;;;;;85.97;36.78;;;14.80;99.90;;;;;;5036644;28;25074;-70
2022/06/06 01:02:48;;;;;;;73.38;33.72;;;14.80;99.90;;;;;;5022156;28;25101;-69
2022/06/06 01:05:15;;;;;;;79.30;34.88;;;15.00;99.90;;;;;;5029128;28;25064;-69
2022/06/06 01:07:41;;;;;;;80.80;33.60;;;14.70;99.90;;;;;;5035720;28;25121;-69
2022/06/06 01:10:08;;;;;;;72.43;34.65;;;14.90;99.90;;;;;;5025534;28;25138;-68
2022/06/06 01:12:33;;;;;;;83.70;36.03;;;14.90;99.90;;;;;;5033843;28;25114;-68
2022/06/06 01:15:04;;;;;;;75.53;35.33;;;14.80;99.90;;;;;;5037756;28;25093;-68
2022/06/06 01:17:50;;;;;;;78.28;34.75;;;14.90;99.90;;;;;;5037075;28;25080;-69
2022/06/06 01:20:33;;;;;;;80.32;34.22;;;14.80;99.90;;;;;;5026291;28;25148;-69
2022/06/06 01:23:08;;;;;;;75.18;34.10;;;15.00;99.90;;;;;;5024440;28;25078;-68
2022/06/06 01:26:01;;;;;;;79.13;34.80;;;14.80;99.90;;;;;;5034856;28;25075;-69
2022/06/06 01:28:38;;;;;;;79.80;35.10;;;14.70;99.90;;;;;;5028151;28;25074;-68
2022/06/06 01:31:10;;;;;;;79.15;33.65;;;14.80;99.90;;;;;;5031871;28;25113;-68
2022/06/06 01:33:50;;;;;;;68.45;33.33;;;14.70;99.90;;;;;;5039514;28;25060;-69
2022/06/06 01:36:16;;;;;;;76.28;34.70;;;14.80;99.90;;;;;;5039961;28;25092;-69
2022/06/06 01:38:42;;;;;;;77.47;34.92;;;14.70;99.90;;;;;;5047244;28;25083;-70
2022/06/06 01:41:10;;;;;;;82.38;34.42;;;14.70;99.90;;;;;;5032558;28;25118;-68
2022/06/06 01:43:59;;;;;;;86.63;35.83;;;14.90;99.90;;;;;;5034069;28;25075;-69
2022/06/06 01:46:30;;;;;;;85.82;35.22;;;14.70;99.90;;;;;;5030093;28;25074;-68
2022/06/06 01:48:57;;;;;;;90.90;36.33;;;14.90;99.90;;;;;;5030813;28;25073;-68
2022/06/06 01:51:27;;;;;;;78.88;35.05;;;14.90;99.90;;;;;;5045493;28;25080;-69
2022/06/06 01:53:53;;;;;;;88.30;36.92;;;14.80;99.90;;;;;;5039877;28;25057;-69
2022/06/06 01:56:25;;;;;;;82.95;36.17;;;14.90;99.90;;;;;;5031180;28;25078;-69
2022/06/06 01:58:51;;;;;;;92.00;37.65;;;14.80;99.90;;;;;;5031763;28;25070;-69
2022/06/06 02:01:17;;;;;;;83.68;36.67;;;14.70;99.90;;;;;;5031552;28;25069;-68
2022/06/06 02:03:43;;;;;;;96.90;38.08;;;14.80;99.90;;;;;;5032781;28;25073;-68
2022/06/06 02:06:09;;;;;;;92.53;37.88;;;14.80;99.90;;;;;;5032923;28;25063;-68
2022/06/06 02:08:35;;;;;;;92.97;39.78;;;14.80;99.90;;;;;;5028280;28;25061;-68
2022/06/06 02:11:11;;;;;;;94.80;40.03;;;14.90;99.90;;;;;;5027582;28;25105;-66
2022/06/06 02:13:37;;;;;;;93.00;36.92;;;14.80;99.90;;;;;;5031456;28;25134;-69
2022/06/06 02:16:03;;;;;;;91.85;38.80;;;15.00;99.90;;;;;;5028873;28;25058;-68
2022/06/06 02:18:29;;;;;;;84.00;35.67;;;15.00;99.90;;;;;;5035353;28;25045;-71
2022/06/06 02:20:55;;;;;;;78.20;35.20;;;14.90;99.90;;;;;;5026738;28;25075;-69
2022/06/06 02:23:21;;;;;;;97.07;37.97;;;15.00;99.90;;;;;;5034312;28;25079;-69
2022/06/06 02:25:47;;;;;;;90.93;38.90;;;15.10;99.90;;;;;;5034972;28;25070;-69
2022/06/06 02:28:15;;;;;;;88.47;39.08;;;15.40;99.90;;;;;;5024449;28;25135;-69
2022/06/06 02:30:41;;;;;;;87.47;36.72;;;15.30;99.90;;;;;;5027073;28;25080;-69
2022/06/06 02:33:07;;;;;;;109.65;41.05;;;15.10;99.90;;;;;;5029696;28;24947;-69
2022/06/06 02:35:36;;;;;;;98.00;38.45;;;15.30;99.90;;;;;;5023250;28;25079;-70
2022/06/06 02:38:03;;;;;;;110.22;41.08;;;15.30;99.90;;;;;;5037354;28;25098;-69
2022/06/06 02:40:30;;;;;;;90.32;37.03;;;15.10;99.90;;;;;;5020247;28;25132;-68
2022/06/06 02:42:56;;;;;;;107.28;41.53;;;15.20;99.90;;;;;;5025408;28;25093;-69
2022/06/06 02:45:22;;;;;;;99.05;37.90;;;15.30;99.90;;;;;;5038030;28;25061;-68
2022/06/06 02:47:51;;;;;;;106.38;39.50;;;15.10;99.90;;;;;;5032540;28;25075;-68
2022/06/06 02:50:20;;;;;;;116.80;41.20;;;15.10;99.90;;;;;;5031136;28;25071;-70
2022/06/06 02:52:45;;;;;;;99.70;39.20;;;15.00;99.90;;;;;;5035873;28;25072;-70
2022/06/06 02:55:13;;;;;;;109.32;39.55;;;15.00;99.90;;;;;;5027969;28;25064;-70
2022/06/06 02:57:44;;;;;;;100.55;37.80;;;15.10;99.90;;;;;;5029662;28;25148;-69
2022/06/06 03:00:14;;;;;;;104.80;39.85;;;15.00;99.90;;;;;;5026250;28;25098;-69
2022/06/06 03:02:39;;;;;;;101.05;37.65;;;15.20;99.90;;;;;;5033162;28;25054;-69
2022/06/06 03:05:07;;;;;;;93.72;35.65;;;14.90;99.90;;;;;;5028369;28;25051;-69
2022/06/06 03:08:01;;;;;;;99.22;36.22;;;15.10;99.90;;;;;;5026313;28;25156;-68
2022/06/06 03:10:45;;;;;;;98.78;37.80;;;14.90;99.90;;;;;;5026405;28;25168;-69
2022/06/06 03:13:47;;;;;;;87.32;36.80;;;15.10;99.90;;;;;;5022715;28;25058;-71
2022/06/06 03:22:44;;;;;;;111.43;47.60;;;14.90;99.90;;;;;;5030703;28;25061;-70
2022/06/06 03:25:42;;;;;;;108.97;46.20;;;15.00;99.90;;;;;;5043279;28;25068;-70
2022/06/06 03:28:29;;;;;;;109.93;47.55;;;15.10;99.90;;;;;;5043248;28;25129;-70
2022/06/06 03:31:03;;;;;;;107.68;47.15;;;14.80;99.90;;;;;;5028486;28;25056;-69
2022/06/06 03:34:06;;;;;;;102.97;46.90;;;14.90;99.90;;;;;;5036151;28;24801;-69
2022/06/06 03:36:32;;;;;;;;;;;14.90;99.90;;;;;;5035316;28;25086;-68
2022/06/06 03:39:06;;;;;;;115.85;48.13;;;14.80;99.90;;;;;;5033485;28;24147;-68
2022/06/06 03:41:50;;;;;;;103.88;47.78;;;14.60;99.90;;;;;;5027873;28;25139;-68
2022/06/06 03:44:37;;;;;;;109.88;49.58;;;14.80;99.90;;;;;;5027811;28;25100;-69
2022/06/06 03:47:11;;;;;;;91.78;46.65;;;14.60;99.90;;;;;;5033027;28;25137;-68
2022/06/06 03:49:54;;;;;;;110.88;49.97;;;14.60;99.90;;;;;;5025148;28;25057;-69
2022/06/06 03:52:34;;;;;;;103.85;46.80;;;14.70;99.90;;;;;;5027527;28;25113;-70
2022/06/06 03:55:02;;;;;;;108.00;50.60;;;14.40;99.90;;;;;;5027423;28;25070;-70
2022/06/06 03:57:28;;;;;;;92.57;48.78;;;14.60;99.90;;;;;;5026152;28;25054;-70
2022/06/06 04:00:00;;;;;;;95.10;47.50;;;14.40;99.90;;;;;;5021847;28;25173;-69
2022/06/06 04:02:32;;;;;;;87.90;47.45;;;14.40;99.90;;;;;;5040613;28;25059;-70
2022/06/06 04:05:06;;;;;;;90.15;47.20;;;14.40;99.90;;;;;;5032250;28;25070;-68
2022/06/06 04:07:33;;;;;;;75.10;43.53;;;14.40;99.90;;;;;;5026082;28;25127;-68
2022/06/06 04:09:59;;;;;;;76.93;42.90;;;14.20;99.90;;;;;;5026703;28;25064;-70
2022/06/06 04:12:34;;;;;;;86.38;44.90;;;14.20;99.90;;;;;;5026529;28;25062;-68
2022/06/06 04:15:13;;;;;;;78.15;39.67;;;14.40;99.90;;;;;;5028446;28;25068;-68
2022/06/06 04:17:57;;;;;;;73.45;39.92;;;14.00;99.90;;;;;;5032152;28;25048;-68
2022/06/06 04:20:25;;;;;;;63.15;35.75;;;14.30;99.90;;;;;;5028051;28;25056;-69
2022/06/06 04:23:19;;;;;;;68.82;37.50;;;14.00;99.90;;;;;;5037470;28;25160;-68
2022/06/06 04:25:53;;;;;;;66.03;35.45;;;14.00;99.90;;;;;;5022327;28;25119;-69
2022/06/06 04:28:52;;;;;;;59.63;34.58;;;13.90;99.90;;;;;;5025996;28;25066;-67
2022/06/06 04:31:45;;;;;;;62.42;33.63;;;14.20;99.90;;;;;;5027385;28;25087;-69
2022/06/06 04:34:21;;;;;;;55.65;30.70;;;14.20;99.90;;;;;;5023506;28;25056;-68
2022/06/06 04:36:59;;;;;;;46.33;27.58;;;13.80;99.90;;;;;;5022707;28;25069;-70
2022/06/06 04:39:49;;;;;;;46.60;28.08;;;14.00;99.90;;;;;;5020275;28;25091;-68
2022/06/06 04:42:42;;;;;;;43.58;26.77;;;13.80;99.90;;;;;;5018287;28;25120;-69
2022/06/06 04:45:38;;;;;;;45.88;26.80;;;13.80;99.90;;;;;;5024944;28;25262;-69
2022/06/06 04:48:05;;;;;;;41.33;25.10;;;13.80;99.90;;;;;;5029515;28;25069;-69
2022/06/06 04:50:33;;;;;;;43.25;23.65;;;14.00;99.90;;;;;;5018828;28;25081;-70
2022/06/06 04:53:08;;;;;;;31.33;21.90;;;14.00;99.90;;;;;;5023352;28;25106;-69
2022/06/06 04:55:37;;;;;;;33.67;21.98;;;14.00;99.90;;;;;;5020024;28;25096;-68
2022/06/06 04:58:04;;;;;;;34.90;20.60;;;13.90;99.90;;;;;;5029176;28;25046;-68
2022/06/06 05:00:37;;;;;;;35.28;21.40;;;13.70;99.90;;;;;;5021032;28;25060;-68
2022/06/06 05:03:04;;;;;;;37.67;20.42;;;13.80;99.90;;;;;;5027591;28;25134;-70
2022/06/06 05:05:56;;;;;;;28.40;19.35;;;13.80;99.90;;;;;;5029208;28;25067;-69
2022/06/06 05:08:33;;;;;;;30.73;18.70;;;13.80;99.90;;;;;;5022510;28;25089;-69
2022/06/06 05:11:29;;;;;;;34.30;19.83;;;13.80;99.90;;;;;;5021540;28;25052;-69
2022/06/06 05:14:09;;;;;;;28.88;18.30;;;13.80;99.90;;;;;;5027484;28;25070;-69
2022/06/06 05:16:56;;;;;;;31.08;17.67;;;14.00;99.90;;;;;;5026075;28;25076;-69
2022/06/06 05:19:36;;;;;;;29.42;16.73;;;14.00;99.90;;;;;;5024434;28;25143;-68
2022/06/06 05:22:23;;;;;;;30.58;17.35;;;13.90;99.90;;;;;;5025360;28;25073;-69
2022/06/06 05:25:01;;;;;;;24.15;14.43;;;14.00;99.90;;;;;;5025496;28;25139;-68
2022/06/06 05:27:58;;;;;;;22.08;13.55;;;13.90;99.90;;;;;;5021634;28;25126;-69
2022/06/06 05:30:32;;;;;;;26.02;14.02;;;14.00;99.90;;;;;;5033528;28;25064;-69
2022/06/06 05:33:16;;;;;;;19.15;12.73;;;14.00;99.90;;;;;;5031948;28;25136;-71
2022/06/06 05:35:54;;;;;;;22.92;13.85;;;14.00;99.90;;;;;;5032676;28;25065;-70
2022/06/06 05:38:44;;;;;;;20.45;14.55;;;13.90;99.90;;;;;;5041457;28;25060;-68
2022/06/06 05:41:28;;;;;;;20.13;15.05;;;13.90;99.90;;;;;;5030074;28;25143;-69
2022/06/06 05:44:08;;;;;;;23.10;13.80;;;14.00;99.90;;;;;;5025239;28;25057;-70
2022/06/06 05:46:45;;;;;;;18.90;14.43;;;14.00;99.90;;;;;;5028604;28;25065;-67
2022/06/06 05:49:33;;;;;;;26.02;15.25;;;14.00;99.90;;;;;;5026627;28;25062;-68
2022/06/06 05:52:18;;;;;;;24.20;14.77;;;14.10;99.90;;;;;;5029039;28;25110;-69
2022/06/06 05:55:12;;;;;;;19.15;13.23;;;14.10;99.90;;;;;;5019199;28;25070;-70
2022/06/06 05:58:16;;;;;;;22.30;12.77;;;14.30;99.90;;;;;;5038257;28;25109;-68
2022/06/06 06:01:03;;;;;;;17.95;12.02;;;14.30;99.90;;;;;;5034816;28;25058;-71
2022/06/06 06:03:44;;;;;;;20.25;11.80;;;14.40;99.90;;;;;;5026517;28;25072;-70
2022/06/06 06:06:09;;;;;;;14.18;10.48;;;14.40;99.90;;;;;;5031610;28;25098;-69
2022/06/06 06:08:58;;;;;;;12.27;9.50;;;14.50;99.90;;;;;;5030967;28;25108;-68
2022/06/06 06:11:37;;;;;;;16.55;10.07;;;14.60;99.90;;;;;;5029572;28;25174;-69
2022/06/06 06:14:10;;;;;;;14.18;8.80;;;14.80;99.90;;;;;;5024073;28;25158;-69
2022/06/06 06:16:41;;;;;;;16.48;10.07;;;14.80;99.90;;;;;;5034205;28;25063;-68
2022/06/06 06:19:14;;;;;;;17.48;10.52;;;14.90;99.90;;;;;;5035088;28;25057;-68
2022/06/06 06:21:54;;;;;;;15.30;9.80;;;14.90;99.90;;;;;;5034500;28;25107;-70
2022/06/06 06:24:30;;;;;;;15.27;9.60;;;14.80;99.90;;;;;;5025768;28;25066;-69
2022/06/06 06:26:57;;;;;;;12.93;9.93;;;14.70;99.90;;;;;;5024522;28;25062;-69
2022/06/06 06:29:23;;;;;;;15.68;10.95;;;14.60;99.90;;;;;;5032751;28;25122;-69
2022/06/06 06:32:16;;;;;;;11.20;9.80;;;14.60;99.90;;;;;;5026491;28;25132;-69
2022/06/06 06:35:17;;;;;;;13.18;10.35;;;14.50;99.90;;;;;;5022944;28;25055;-69
2022/06/06 06:38:01;;;;;;;13.98;10.13;;;14.50;99.90;;;;;;5028101;28;25076;-70
2022/06/06 06:40:59;;;;;;;15.57;10.35;;;14.60;99.90;;;;;;5023326;28;25128;-68
2022/06/06 06:43:58;;;;;;;15.18;9.70;;;14.60;99.90;;;;;;5021921;28;25056;-69
2022/06/06 06:46:27;;;;;;;14.65;8.27;;;14.60;99.90;;;;;;4983021;28;25141;-70
2022/06/06 06:49:22;;;;;;;14.23;8.90;;;14.60;99.90;;;;;;5017778;28;25067;-68
2022/06/06 06:52:08;;;;;;;11.18;8.18;;;14.90;99.90;;;;;;5000083;28;25107;-70
2022/06/06 06:54:47;;;;;;;11.93;7.30;;;15.10;99.90;;;;;;5032842;28;25133;-67
2022/06/06 06:57:37;;;;;;;11.90;6.70;;;15.10;99.90;;;;;;5034016;28;25054;-69
2022/06/06 07:00:21;;;;;;;9.68;6.75;;;15.40;99.90;;;;;;5031767;28;25045;-69
2022/06/06 07:09:09;;;;;;;10.05;6.90;;;15.80;99.90;;;;;;5023883;28;25075;-69
2022/06/06 07:11:38;;;;;;;14.52;6.32;;;15.50;99.90;;;;;;5025308;28;25074;-67
2022/06/06 07:14:03;;;;;;;12.30;5.78;;;15.50;99.90;;;;;;5022582;28;25121;-68
2022/06/06 07:16:36;;;;;;;8.73;6.35;;;15.50;99.90;;;;;;5024326;28;25077;-68
2022/06/06 07:19:12;;;;;;;11.90;6.63;;;15.20;99.90;;;;;;5018296;28;25116;-68
2022/06/06 07:21:40;;;;;;;8.65;6.72;;;15.40;99.90;;;;;;5031011;28;25068;-69
2022/06/06 07:24:14;;;;;;;10.63;6.75;;;15.40;99.90;;;;;;5021826;28;25067;-68
2022/06/06 07:26:42;;;;;;;11.45;7.22;;;15.40;99.90;;;;;;5024774;28;25169;-68
2022/06/06 07:29:11;;;;;;;8.82;7.05;;;15.40;99.90;;;;;;5012825;28;25100;-69
2022/06/06 07:31:42;;;;;;;8.65;6.22;;;15.50;99.90;;;;;;5022980;28;25062;-70
2022/06/06 07:34:26;;;;;;;8.77;6.32;;;15.60;99.90;;;;;;5018903;28;25104;-69
2022/06/06 07:37:00;;;;;;;10.68;6.70;;;15.50;99.90;;;;;;5021558;28;25057;-70
2022/06/06 07:40:13;;;;;;;8.45;5.28;;;15.70;99.90;;;;;;5021082;28;25189;-67
2022/06/06 07:43:11;;;;;;;6.07;5.15;;;15.80;99.90;;;;;;4955412;28;25073;-69
2022/06/06 07:45:48;;;;;;;6.05;4.43;;;15.90;99.90;;;;;;4991557;23;25196;-65
2022/06/06 07:48:35;;;;;;;7.85;3.85;;;15.90;99.90;;;;;;5054738;28;25144;-64
2022/06/06 07:51:08;;;;;;;10.23;4.90;;;15.70;99.90;;;;;;5053093;28;25085;-65
2022/06/06 07:53:37;;;;;;;4.65;3.55;;;15.70;99.90;;;;;;5047876;28;25065;-64
2022/06/06 07:56:53;;;;;;;11.18;4.07;;;15.80;99.90;;;;;;5057200;28;25076;-66
2022/06/06 07:59:37;;;;;;;8.40;3.50;;;15.60;99.90;;;;;;5025588;22;25058;-67
2022/06/06 08:02:15;;;;;;;6.35;3.35;;;15.80;99.90;;;;;;5025095;28;25045;-66
2022/06/06 08:05:20;;;;;;;5.75;3.17;;;16.10;99.90;;;;;;5024939;28;25105;-67
2022/06/06 08:07:55;;;;;;;5.05;2.58;;;16.10;99.90;;;;;;5007075;28;25119;-68
2022/06/06 08:10:26;;;;;;;3.92;3.00;;;16.20;99.90;;;;;;5006130;28;25065;-68
2022/06/06 08:13:18;;;;;;;4.23;2.77;;;16.30;99.90;;;;;;5006914;28;25051;-66
2022/06/06 08:16:01;;;;;;;7.63;2.70;;;16.10;99.90;;;;;;5000865;28;25069;-70
2022/06/06 08:18:51;;;;;;;4.30;2.80;;;16.50;99.90;;;;;;5001706;28;25066;-67
2022/06/06 08:21:37;;;;;;;7.05;3.10;;;16.50;99.90;;;;;;5002222;28;25154;-70
2022/06/06 08:24:06;;;;;;;3.30;2.72;;;16.20;99.90;;;;;;5002118;28;25079;-70
2022/06/06 08:26:37;;;;;;;7.07;3.30;;;16.10;99.90;;;;;;5002797;28;25073;-69
2022/06/06 08:29:06;;;;;;;9.05;3.08;;;16.20;99.90;;;;;;5002416;28;25075;-67
2022/06/06 08:31:32;;;;;;;10.65;2.60;;;16.40;99.90;;;;;;5003795;28;25073;-68
2022/06/06 08:33:58;;;;;;;9.00;3.55;;;16.50;99.90;;;;;;5005933;28;25073;-68
2022/06/06 08:36:35;;;;;;;4.82;2.35;;;16.60;99.90;;;;;;5003645;28;25056;-69
2022/06/06 08:39:16;;;;;;;4.13;2.25;;;16.60;99.90;;;;;;5005922;28;25072;-70
2022/06/06 08:42:00;;;;;;;6.88;2.53;;;16.50;99.90;;;;;;5005334;28;25055;-66
2022/06/06 08:44:28;;;;;;;5.55;2.25;;;16.70;99.90;;;;;;5006551;28;25146;-69
2022/06/06 08:47:02;;;;;;;7.22;2.22;;;16.90;99.90;;;;;;5004644;28;25110;-66
2022/06/06 08:53:02;;;;;;;4.43;2.15;;;17.10;99.90;;;;;;5007622;28;25111;-66
2022/06/06 08:55:53;;;;;;;5.57;2.20;;;17.30;99.90;;;;;;5013988;28;25123;-68
2022/06/06 08:58:27;;;;;;;3.20;1.60;;;17.50;99.90;;;;;;5010365;28;25082;-66
2022/06/06 09:01:12;;;;;;;3.55;1.90;;;17.70;99.90;;;;;;5008399;28;25093;-69
2022/06/06 09:04:21;;;;;;;6.90;2.60;;;17.50;99.90;;;;;;5002323;28;25093;-68
2022/06/06 09:07:03;;;;;;;5.63;1.90;;;17.50;99.90;;;;;;5006794;28;25127;-66
2022/06/06 09:09:49;;;;;;;4.40;2.28;;;17.50;99.90;;;;;;5008876;28;25053;-67
2022/06/06 09:12:30;;;;;;;5.80;2.30;;;17.00;99.90;;;;;;5009750;28;25103;-66
2022/06/06 09:15:25;;;;;;;5.53;3.10;;;16.60;99.90;;;;;;5008716;28;25081;-67
2022/06/06 09:18:25;;;;;;;5.57;2.83;;;16.50;99.90;;;;;;5023636;28;25076;-69
2022/06/06 09:20:50;;;;;;;4.28;1.80;;;17.00;99.90;;;;;;5009046;28;25387;-67
2022/06/06 09:23:37;;;;;;;4.32;1.90;;;17.60;99.90;;;;;;5009915;28;25154;-69
2022/06/06 09:26:40;;;;;;;9.25;2.45;;;17.70;99.90;;;;;;5005309;28;25089;-66
2022/06/06 09:29:54;;;;;;;4.70;2.13;;;17.50;99.90;;;;;;5006461;28;25136;-67
2022/06/06 09:32:38;;;;;;;7.68;2.90;;;17.10;99.90;;;;;;5008735;28;25078;-69
2022/06/06 09:35:22;;;;;;;6.18;2.50;;;17.00;99.90;;;;;;5011703;28;25170;-70
2022/06/06 09:38:09;;;;;;;2.90;2.00;;;17.30;99.90;;;;;;5025373;28;25097;-70
2022/06/06 09:40:56;;;;;;;5.13;2.70;;;17.90;99.90;;;;;;5009507;28;25062;-69
2022/06/06 09:43:41;;;;;;;9.02;2.55;;;18.20;99.90;;;;;;5018432;28;25063;-68
2022/06/06 09:46:09;;;;;;;2.35;2.00;;;17.90;99.90;;;;;;5011971;28;25066;-66
2022/06/06 09:48:44;;;;;;;5.03;2.10;;;17.50;99.90;;;;;;5011249;28;25135;-68
2022/06/06 09:51:39;;;;;;;5.05;2.00;;;17.60;99.90;;;;;;5008965;28;25061;-68
2022/06/06 10:00:56;;;;;;;9.50;1.80;;;18.90;99.90;;;;;;5004996;28;25073;-67
2022/06/06 10:03:43;;;;;;;6.53;2.00;;;19.30;99.90;;;;;;5004599;28;25087;-70
2022/06/06 10:06:41;;;;;;;3.75;2.10;;;19.50;99.90;;;;;;5012439;28;25099;-68
2022/06/06 10:09:34;;;;;;;5.28;1.73;;;19.30;99.90;;;;;;5010098;28;25171;-68
2022/06/06 10:12:15;;;;;;;4.10;2.13;;;19.60;99.90;;;;;;5011263;28;25069;-69
2022/06/06 10:14:47;;;;;;;3.38;1.92;;;19.40;99.90;;;;;;5012206;28;25116;-68
2022/06/06 10:17:42;;;;;;;5.72;2.17;;;19.00;99.90;;;;;;5011960;28;25059;-69
2022/06/06 10:20:14;;;;;;;8.70;2.70;;;18.40;99.90;;;;;;5014040;28;25132;-70
2022/06/06 10:23:18;;;;;;;7.88;2.60;;;17.80;99.90;;;;;;5016095;28;25077;-71
2022/06/06 10:26:09;;;;;;;6.35;2.70;;;17.10;99.90;;;;;;5026696;28;25052;-69
2022/06/06 10:28:53;;;;;;;4.20;2.38;;;16.90;99.90;;;;;;5013611;28;25058;-69
2022/06/06 10:31:39;;;;;;;6.45;2.78;;;16.80;99.90;;;;;;5008884;28;25058;-68
2022/06/06 10:34:26;;;;;;;4.57;2.40;;;16.70;99.90;;;;;;5007071;28;25078;-68
2022/06/06 10:37:09;;;;;;;6.70;3.00;;;16.90;99.90;;;;;;5002209;28;25066;-69
2022/06/06 10:39:53;;;;;;;5.75;3.53;;;17.10;99.90;;;;;;5008921;28;25098;-69
2022/06/06 10:42:40;;;;;;;4.38;2.88;;;17.40;99.90;;;;;;5010865;28;25130;-69
2022/06/06 10:45:37;;;;;;;6.45;2.92;;;17.80;99.90;;;;;;5010323;28;25064;-68
2022/06/06 10:48:21;;;;;;;7.63;3.00;;;17.80;99.90;;;;;;5013480;28;25068;-68
2022/06/06 10:51:42;;;;;;;7.47;3.28;;;17.70;99.90;;;;;;5011583;28;25379;-66
2022/06/06 10:54:29;;;;;;;4.47;2.38;;;17.50;99.90;;;;;;5010671;28;25081;-67
2022/06/06 10:57:16;;;;;;;7.03;2.58;;;17.70;99.90;;;;;;5014204;28;25076;-66
2022/06/06 10:59:51;;;;;;;3.05;2.15;;;17.80;99.90;;;;;;5009917;28;25091;-66
2022/06/06 11:02:41;;;;;;;4.40;1.88;;;17.60;99.90;;;;;;5010502;28;25054;-69
2022/06/06 11:05:22;;;;;;;5.28;2.35;;;17.40;99.90;;;;;;5021771;28;25072;-69
2022/06/06 11:08:09;;;;;;;7.47;2.28;;;17.30;99.90;;;;;;5008085;28;25158;-68
2022/06/06 11:10:43;;;;;;;3.63;2.00;;;17.10;99.90;;;;;;5007603;28;25108;-68
2022/06/06 11:13:16;;;;;;;3.78;2.20;;;17.00;99.90;;;;;;5007775;28;25077;-66
2022/06/06 11:15:46;;;;;;;;;;;16.80;99.90;;;;;;5011337;28;25089;-68
2022/06/06 11:18:42;;;;;;;7.00;2.95;;;16.80;99.90;;;;;;5008027;28;25134;-68
2022/06/06 11:21:32;;;;;;;5.22;3.13;;;16.40;99.90;;;;;;5005023;28;25069;-68
2022/06/06 11:24:21;;;;;;;5.30;4.20;;;16.10;99.90;;;;;;5000824;28;25072;-67
2022/06/06 11:26:52;;;;;;;8.10;4.47;;;15.70;99.90;;;;;;5006852;28;25071;-69
2022/06/06 11:29:36;;;;;;;6.95;4.07;;;15.60;99.90;;;;;;5000805;28;25118;-70
2022/06/06 11:32:27;;;;;;;7.15;4.63;;;15.60;99.90;;;;;;5005855;28;25073;-69
2022/06/06 11:35:29;;;;;;;9.98;4.13;;;15.50;99.90;;;;;;5010872;28;25130;-70
2022/06/06 11:38:11;;;;;;;5.82;4.68;;;15.60;99.90;;;;;;5009450;28;25133;-69
2022/06/06 11:40:43;;;;;;;;;;;15.40;99.90;;;;;;5011710;28;25058;-67
2022/06/06 11:43:46;;;;;;;9.20;4.90;;;15.60;99.90;;;;;;5011422;28;25139;-69
2022/06/06 11:46:39;;;;;;;9.60;5.13;;;15.60;99.90;;;;;;5006104;28;25054;-70
2022/06/06 11:49:22;;;;;;;10.65;5.00;;;15.50;99.90;;;;;;5007846;28;25082;-67
2022/06/06 11:51:59;;;;;;;10.30;5.00;;;15.60;99.90;;;;;;5007292;28;25063;-67
2022/06/06 11:54:47;;;;;;;10.60;5.20;;;15.60;99.90;;;;;;5004195;28;25080;-67
2022/06/06 11:59:53;;;;;;;8.32;5.18;;;15.80;99.90;;;;;;4997955;28;25154;-64
2022/06/06 12:02:29;;;;;;;9.93;5.47;;;15.80;99.90;;;;;;4993056;28;25156;-65
2022/06/06 12:05:14;;;;;;;15.30;5.35;;;15.80;99.90;;;;;;4990460;28;25068;-65
2022/06/06 12:08:08;;;;;;;8.48;5.07;;;15.70;99.90;;;;;;4993717;28;25056;-66
2022/06/06 12:11:02;;;;;;;7.75;4.78;;;15.80;99.90;;;;;;5014455;23;25137;-69
2022/06/06 12:14:05;;;;;;;8.23;5.47;;;15.60;99.90;;;;;;5039991;28;25069;-67
2022/06/06 12:16:55;;;;;;;7.70;4.90;;;15.60;99.90;;;;;;5032845;28;25058;-68
2022/06/06 12:19:32;;;;;;;10.23;5.72;;;15.40;99.90;;;;;;5032262;28;25138;-69
2022/06/06 12:22:21;;;;;;;9.85;5.47;;;15.60;99.90;;;;;;5046629;28;25058;-67
2022/06/06 12:25:19;;;;;;;9.57;5.18;;;15.70;99.90;;;;;;5036253;28;25093;-68
2022/06/06 12:28:01;;;;;;;8.10;4.38;;;15.80;99.90;;;;;;5046250;28;24988;-68
2022/06/06 12:31:00;;;;;;;9.13;4.78;;;15.60;99.90;;;;;;5029138;28;25156;-68
2022/06/06 12:34:14;;;;;;;7.28;5.10;;;15.60;99.90;;;;;;5033388;28;25048;-70
2022/06/06 12:37:08;;;;;;;7.80;5.85;;;15.70;99.90;;;;;;5028611;28;25079;-72
2022/06/06 12:39:59;;;;;;;7.30;5.78;;;15.60;99.90;;;;;;5036733;28;25097;-70
2022/06/06 12:42:28;;;;;;;11.95;6.82;;;15.70;99.90;;;;;;5032725;28;25146;-69
2022/06/06 12:45:09;;;;;;;7.35;6.50;;;15.60;99.90;;;;;;5036681;28;25125;-70
2022/06/06 12:48:06;;;;;;;10.77;7.18;;;15.60;99.90;;;;;;5028837;28;25128;-69
2022/06/06 12:51:03;;;;;;;9.93;6.35;;;15.30;99.90;;;;;;5027508;28;25144;-69
2022/06/06 12:53:32;;;;;;;13.93;8.35;;;15.30;99.90;;;;;;5030262;28;25085;-75
2022/06/06 12:59:06;;;;;;;11.23;8.90;;;15.30;99.90;;;;;;5038250;28;25067;-69
2022/06/06 13:01:38;;;;;;;10.43;9.40;;;15.10;99.90;;;;;;5053265;28;25112;-68
2022/06/06 13:04:18;;;;;;;15.15;11.00;;;15.00;99.90;;;;;;5036527;28;25092;-71
2022/06/06 13:06:55;;;;;;;18.00;11.88;;;14.90;99.90;;;;;;5040784;28;25054;-69
2022/06/06 13:09:20;;;;;;;16.75;12.82;;;14.90;99.90;;;;;;5030858;28;25106;-67
2022/06/06 13:12:22;;;;;;;19.58;14.45;;;14.90;99.90;;;;;;5026938;28;25111;-68
2022/06/06 13:15:32;;;;;;;22.63;13.85;;;14.80;99.90;;;;;;5029405;28;25064;-66
2022/06/06 13:18:19;;;;;;;13.15;11.73;;;14.80;99.90;;;;;;5032720;28;25308;-68
2022/06/06 13:21:03;;;;;;;16.85;13.18;;;14.60;99.90;;;;;;5034851;28;25079;-70
2022/06/06 13:23:57;;;;;;;19.00;13.63;;;14.50;99.90;;;;;;5035387;28;25056;-71
2022/06/06 13:26:38;;;;;;;17.30;12.80;;;14.60;99.90;;;;;;5040790;28;25090;-70
2022/06/06 13:29:05;;;;;;;14.07;11.18;;;14.60;99.90;;;;;;5040834;28;25145;-71
2022/06/06 13:32:06;;;;;;;16.27;12.10;;;14.40;99.90;;;;;;5033507;28;25121;-70
2022/06/06 13:34:49;;;;;;;12.60;8.38;;;14.50;99.90;;;;;;5010954;28;25065;-70
2022/06/06 13:37:45;;;;;;;8.85;5.57;;;14.50;99.90;;;;;;5033380;28;25058;-70
2022/06/06 13:40:33;;;;;;;3.70;2.45;;;14.30;99.90;;;;;;5032493;28;25052;-70
2022/06/06 13:42:59;;;;;;;3.38;2.70;;;14.10;99.90;;;;;;5039216;28;25125;-69
2022/06/06 13:45:32;;;;;;;3.78;2.67;;;14.30;99.90;;;;;;5041646;28;25135;-69
2022/06/06 13:48:28;;;;;;;3.30;2.15;;;14.30;99.90;;;;;;5032623;28;25075;-71
2022/06/06 13:51:09;;;;;;;4.57;2.15;;;14.20;99.90;;;;;;5044382;28;25114;-70
2022/06/06 13:53:42;;;;;;;4.05;1.90;;;14.30;99.90;;;;;;5043296;28;25060;-69
2022/06/06 13:56:22;;;;;;;2.95;1.95;;;14.10;99.90;;;;;;5032368;28;25100;-68
2022/06/06 13:59:00;;;;;;;4.32;2.20;;;14.30;99.90;;;;;;5042201;28;25056;-70
2022/06/06 14:01:34;;;;;;;5.63;2.15;;;14.40;99.90;;;;;;5039062;28;25083;-68
2022/06/06 14:04:08;;;;;;;8.68;2.08;;;14.30;99.90;;;;;;5058598;28;25089;-68
2022/06/06 14:06:45;;;;;;;4.18;1.95;;;14.20;99.90;;;;;;5044868;28;25154;-67
2022/06/06 14:09:15;;;;;;;4.50;1.90;;;14.00;99.90;;;;;;5031094;28;25142;-67